sensor_id;sensor_type;location;lat;lon;timestamp;temperature;humidity
22192;DHT22;11261;52.456;10.850;2023-04-05T00:00:31;2.20;99.90
22192;DHT22;11261;52.456;10.850;2023-04-05T00:02:59;2.20;99.90
22192;DHT22;11261;52.456;10.850;2023-04-05T00:05:29;2.20;99.90
22192;DHT22;11261;52.456;10.850;2023-04-05T00:08:01;2.10;99.90
22192;DHT22;11261;52.456;10.850;2023-04-05T00:10:30;2.10;99.90
22192;DHT22;11261;52.456;10.850;2023-04-05T00:12:58;2.10;99.90
22192;DHT22;11261;52.456;10.850;2023-04-05T00:15:27;2.10;99.90
22192;DHT22;11261;52.456;10.850;2023-04-05T00:17:55;2.10;99.90
22192;DHT22;11261;52.456;10.850;2023-04-05T00:20:24;2.10;99.90
22192;DHT22;11261;52.456;10.850;2023-04-05T00:22:53;2.10;99.90
22192;DHT22;11261;52.456;10.850;2023-04-05T00:25:22;2.00;99.90
22192;DHT22;11261;52.456;10.850;2023-04-05T00:27:50;2.00;99.90
22192;DHT22;11261;52.456;10.850;2023-04-05T00:30:18;2.00;99.90
22192;DHT22;11261;52.456;10.850;2023-04-05T00:32:47;1.90;99.90
22192;DHT22;11261;52.456;10.850;2023-04-05T00:35:16;1.90;99.90
22192;DHT22;11261;52.456;10.850;2023-04-05T00:37:45;1.90;99.90
22192;DHT22;11261;52.456;10.850;2023-04-05T00:40:15;1.90;99.90
22192;DHT22;11261;52.456;10.850;2023-04-05T00:42:43;1.80;99.90
22192;DHT22;11261;52.456;10.850;2023-04-05T00:45:12;1.70;99.90
22192;DHT22;11261;52.456;10.850;2023-04-05T00:47:41;1.70;99.90
22192;DHT22;11261;52.456;10.850;2023-04-05T00:50:10;1.70;99.90
22192;DHT22;11261;52.456;10.850;2023-04-05T00:52:39;1.70;99.90
22192;DHT22;11261;52.456;10.850;2023-04-05T00:55:09;1.60;99.90
22192;DHT22;11261;52.456;10.850;2023-04-05T00:57:39;1.60;99.90
22192;DHT22;11261;52.456;10.850;2023-04-05T01:00:08;1.50;99.90
22192;DHT22;11261;52.456;10.850;2023-04-05T01:02:40;1.60;99.90
22192;DHT22;11261;52.456;10.850;2023-04-05T01:05:33;1.60;99.90
22192;DHT22;11261;52.456;10.850;2023-04-05T01:08:09;1.60;99.90
22192;DHT22;11261;52.456;10.850;2023-04-05T01:10:45;1.70;99.90
22192;DHT22;11261;52.456;10.850;2023-04-05T01:13:16;1.60;99.90
22192;DHT22;11261;52.456;10.850;2023-04-05T01:15:45;1.60;99.90
22192;DHT22;11261;52.456;10.850;2023-04-05T01:18:13;1.50;99.90
22192;DHT22;11261;52.456;10.850;2023-04-05T01:20:47;1.40;99.90
22192;DHT22;11261;52.456;10.850;2023-04-05T01:23:33;1.40;99.90
22192;DHT22;11261;52.456;10.850;2023-04-05T01:31:59;1.40;99.90
22192;DHT22;11261;52.456;10.850;2023-04-05T01:34:36;1.50;99.90
22192;DHT22;11261;52.456;10.850;2023-04-05T01:37:09;1.50;99.90
22192;DHT22;11261;52.456;10.850;2023-04-05T01:39:38;1.40;99.90
22192;DHT22;11261;52.456;10.850;2023-04-05T01:42:07;1.40;99.90
22192;DHT22;11261;52.456;10.850;2023-04-05T01:44:35;1.40;99.90
22192;DHT22;11261;52.456;10.850;2023-04-05T01:47:04;1.50;99.90
22192;DHT22;11261;52.456;10.850;2023-04-05T01:49:33;1.40;99.90
22192;DHT22;11261;52.456;10.850;2023-04-05T01:52:01;1.40;99.90
22192;DHT22;11261;52.456;10.850;2023-04-05T01:54:29;1.50;99.90
22192;DHT22;11261;52.456;10.850;2023-04-05T01:56:58;1.40;99.90
22192;DHT22;11261;52.456;10.850;2023-04-05T01:59:26;1.50;99.90
22192;DHT22;11261;52.456;10.850;2023-04-05T02:01:54;1.40;99.90
22192;DHT22;11261;52.456;10.850;2023-04-05T02:04:24;1.50;99.90
22192;DHT22;11261;52.456;10.850;2023-04-05T02:06:52;1.60;99.90
22192;DHT22;11261;52.456;10.850;2023-04-05T02:09:21;1.60;99.90
22192;DHT22;11261;52.456;10.850;2023-04-05T02:11:49;1.50;99.90
22192;DHT22;11261;52.456;10.850;2023-04-05T02:14:18;1.50;99.90
22192;DHT22;11261;52.456;10.850;2023-04-05T02:16:46;1.50;99.90
22192;DHT22;11261;52.456;10.850;2023-04-05T02:19:14;1.50;99.90
22192;DHT22;11261;52.456;10.850;2023-04-05T02:21:50;1.50;99.90
22192;DHT22;11261;52.456;10.850;2023-04-05T02:24:19;1.40;99.90
22192;DHT22;11261;52.456;10.850;2023-04-05T02:26:48;1.40;99.90
22192;DHT22;11261;52.456;10.850;2023-04-05T02:29:17;1.40;99.90
22192;DHT22;11261;52.456;10.850;2023-04-05T02:31:45;1.40;99.90
22192;DHT22;11261;52.456;10.850;2023-04-05T02:34:13;1.40;99.90
22192;DHT22;11261;52.456;10.850;2023-04-05T02:36:41;1.40;99.90
22192;DHT22;11261;52.456;10.850;2023-04-05T02:39:11;1.30;99.90
22192;DHT22;11261;52.456;10.850;2023-04-05T02:41:40;1.30;99.90
22192;DHT22;11261;52.456;10.850;2023-04-05T02:44:08;1.30;99.90
22192;DHT22;11261;52.456;10.850;2023-04-05T02:46:36;1.20;99.90
22192;DHT22;11261;52.456;10.850;2023-04-05T02:49:05;1.20;99.90
22192;DHT22;11261;52.456;10.850;2023-04-05T02:51:33;1.20;99.90
22192;DHT22;11261;52.456;10.850;2023-04-05T02:54:02;1.10;99.90
22192;DHT22;11261;52.456;10.850;2023-04-05T02:56:32;1.10;99.90
22192;DHT22;11261;52.456;10.850;2023-04-05T02:59:00;1.10;99.90
22192;DHT22;11261;52.456;10.850;2023-04-05T03:01:28;1.00;99.90
22192;DHT22;11261;52.456;10.850;2023-04-05T03:03:58;1.00;99.90
22192;DHT22;11261;52.456;10.850;2023-04-05T03:06:27;1.00;99.90
22192;DHT22;11261;52.456;10.850;2023-04-05T03:08:57;1.00;99.90
22192;DHT22;11261;52.456;10.850;2023-04-05T03:11:28;1.00;99.90
22192;DHT22;11261;52.456;10.850;2023-04-05T03:13:58;1.00;99.90
22192;DHT22;11261;52.456;10.850;2023-04-05T03:16:26;1.00;99.90
22192;DHT22;11261;52.456;10.850;2023-04-05T03:18:54;0.70;99.90
22192;DHT22;11261;52.456;10.850;2023-04-05T03:21:23;0.40;99.90
22192;DHT22;11261;52.456;10.850;2023-04-05T03:23:52;0.00;99.90
22192;DHT22;11261;52.456;10.850;2023-04-05T03:26:21;-0.20;99.90
22192;DHT22;11261;52.456;10.850;2023-04-05T03:28:50;0.00;99.90
22192;DHT22;11261;52.456;10.850;2023-04-05T03:31:20;0.30;99.90
22192;DHT22;11261;52.456;10.850;2023-04-05T03:33:48;0.40;99.90
22192;DHT22;11261;52.456;10.850;2023-04-05T03:36:17;0.50;99.90
22192;DHT22;11261;52.456;10.850;2023-04-05T03:38:45;0.50;99.90
22192;DHT22;11261;52.456;10.850;2023-04-05T03:41:14;0.30;99.90
22192;DHT22;11261;52.456;10.850;2023-04-05T03:43:42;0.40;99.90
22192;DHT22;11261;52.456;10.850;2023-04-05T03:46:10;0.50;99.90
22192;DHT22;11261;52.456;10.850;2023-04-05T03:48:40;0.60;99.90
22192;DHT22;11261;52.456;10.850;2023-04-05T03:51:08;0.60;99.90
22192;DHT22;11261;52.456;10.850;2023-04-05T03:53:37;0.60;99.90
22192;DHT22;11261;52.456;10.850;2023-04-05T03:56:06;0.40;99.90
22192;DHT22;11261;52.456;10.850;2023-04-05T03:58:35;0.30;99.90
22192;DHT22;11261;52.456;10.850;2023-04-05T04:01:03;0.40;99.90
22192;DHT22;11261;52.456;10.850;2023-04-05T04:03:32;0.50;99.90
22192;DHT22;11261;52.456;10.850;2023-04-05T04:06:05;0.50;99.90
22192;DHT22;11261;52.456;10.850;2023-04-05T04:08:34;0.60;99.90
22192;DHT22;11261;52.456;10.850;2023-04-05T04:11:02;0.50;99.90
22192;DHT22;11261;52.456;10.850;2023-04-05T04:13:31;0.40;99.90
22192;DHT22;11261;52.456;10.850;2023-04-05T04:15:59;0.40;99.90
22192;DHT22;11261;52.456;10.850;2023-04-05T04:18:27;0.30;99.90
22192;DHT22;11261;52.456;10.850;2023-04-05T04:20:55;0.30;99.90
22192;DHT22;11261;52.456;10.850;2023-04-05T04:23:28;0.30;99.90
22192;DHT22;11261;52.456;10.850;2023-04-05T04:25:56;0.30;99.90
22192;DHT22;11261;52.456;10.850;2023-04-05T04:28:24;0.30;99.90
22192;DHT22;11261;52.456;10.850;2023-04-05T04:30:54;0.30;99.90
22192;DHT22;11261;52.456;10.850;2023-04-05T04:33:22;0.30;99.90
22192;DHT22;11261;52.456;10.850;2023-04-05T04:35:50;0.20;99.90
22192;DHT22;11261;52.456;10.850;2023-04-05T04:38:20;0.20;99.90
22192;DHT22;11261;52.456;10.850;2023-04-05T04:40:53;0.20;99.90
22192;DHT22;11261;52.456;10.850;2023-04-05T04:43:24;0.20;99.90
22192;DHT22;11261;52.456;10.850;2023-04-05T04:45:53;0.10;99.90
22192;DHT22;11261;52.456;10.850;2023-04-05T04:48:21;0.10;99.90
22192;DHT22;11261;52.456;10.850;2023-04-05T04:50:50;0.10;99.90
22192;DHT22;11261;52.456;10.850;2023-04-05T04:53:18;0.10;99.90
22192;DHT22;11261;52.456;10.850;2023-04-05T04:55:50;0.10;99.90
22192;DHT22;11261;52.456;10.850;2023-04-05T04:58:20;0.10;99.90
22192;DHT22;11261;52.456;10.850;2023-04-05T05:00:48;0.10;99.90
22192;DHT22;11261;52.456;10.850;2023-04-05T05:03:19;0.20;99.90
22192;DHT22;11261;52.456;10.850;2023-04-05T05:05:49;0.20;99.90
22192;DHT22;11261;52.456;10.850;2023-04-05T05:08:17;0.40;99.90
22192;DHT22;11261;52.456;10.850;2023-04-05T05:10:50;0.70;99.90
22192;DHT22;11261;52.456;10.850;2023-04-05T05:13:20;1.10;99.90
22192;DHT22;11261;52.456;10.850;2023-04-05T05:15:49;1.40;99.90
22192;DHT22;11261;52.456;10.850;2023-04-05T05:18:18;1.60;99.90
22192;DHT22;11261;52.456;10.850;2023-04-05T05:20:49;1.90;99.90
22192;DHT22;11261;52.456;10.850;2023-04-05T05:23:18;2.30;99.90
22192;DHT22;11261;52.456;10.850;2023-04-05T05:25:47;2.50;99.90
22192;DHT22;11261;52.456;10.850;2023-04-05T05:28:15;2.80;99.90
22192;DHT22;11261;52.456;10.850;2023-04-05T05:30:44;3.20;99.90
22192;DHT22;11261;52.456;10.850;2023-04-05T05:33:12;3.40;99.90
22192;DHT22;11261;52.456;10.850;2023-04-05T05:35:41;3.80;99.90
22192;DHT22;11261;52.456;10.850;2023-04-05T05:38:10;4.00;99.90
22192;DHT22;11261;52.456;10.850;2023-04-05T05:40:39;4.40;99.90
22192;DHT22;11261;52.456;10.850;2023-04-05T05:43:08;4.70;99.90
22192;DHT22;11261;52.456;10.850;2023-04-05T05:45:37;4.70;99.90
22192;DHT22;11261;52.456;10.850;2023-04-05T05:48:06;5.10;99.90
22192;DHT22;11261;52.456;10.850;2023-04-05T05:50:35;5.40;99.90
22192;DHT22;11261;52.456;10.850;2023-04-05T05:53:05;4.30;99.90
22192;DHT22;11261;52.456;10.850;2023-04-05T05:55:34;4.40;99.90
22192;DHT22;11261;52.456;10.850;2023-04-05T05:58:02;4.50;99.90
22192;DHT22;11261;52.456;10.850;2023-04-05T06:00:31;5.70;99.90
22192;DHT22;11261;52.456;10.850;2023-04-05T06:02:59;6.30;99.90
22192;DHT22;11261;52.456;10.850;2023-04-05T06:05:29;6.80;99.90
22192;DHT22;11261;52.456;10.850;2023-04-05T06:07:57;6.80;99.90
22192;DHT22;11261;52.456;10.850;2023-04-05T06:10:25;6.80;99.90
22192;DHT22;11261;52.456;10.850;2023-04-05T06:12:54;6.60;99.90
22192;DHT22;11261;52.456;10.850;2023-04-05T06:15:22;7.00;99.90
22192;DHT22;11261;52.456;10.850;2023-04-05T06:17:50;6.90;99.90
22192;DHT22;11261;52.456;10.850;2023-04-05T06:20:18;7.50;99.90
22192;DHT22;11261;52.456;10.850;2023-04-05T06:22:48;7.60;99.90
22192;DHT22;11261;52.456;10.850;2023-04-05T06:25:16;8.10;99.60
22192;DHT22;11261;52.456;10.850;2023-04-05T06:27:45;8.40;99.50
22192;DHT22;11261;52.456;10.850;2023-04-05T06:30:13;8.90;98.80
22192;DHT22;11261;52.456;10.850;2023-04-05T06:32:41;8.90;98.50
22192;DHT22;11261;52.456;10.850;2023-04-05T06:35:11;9.20;98.10
22192;DHT22;11261;52.456;10.850;2023-04-05T06:37:39;8.60;97.90
22192;DHT22;11261;52.456;10.850;2023-04-05T06:40:09;8.70;98.00
22192;DHT22;11261;52.456;10.850;2023-04-05T06:42:37;9.10;98.00
22192;DHT22;11261;52.456;10.850;2023-04-05T06:45:07;10.00;96.30
22192;DHT22;11261;52.456;10.850;2023-04-05T06:47:36;10.20;95.20
22192;DHT22;11261;52.456;10.850;2023-04-05T06:50:06;10.10;95.10
22192;DHT22;11261;52.456;10.850;2023-04-05T06:52:35;9.70;95.70
22192;DHT22;11261;52.456;10.850;2023-04-05T06:55:03;9.90;95.20
22192;DHT22;11261;52.456;10.850;2023-04-05T06:57:33;10.50;94.80
22192;DHT22;11261;52.456;10.850;2023-04-05T07:00:01;9.80;93.90
22192;DHT22;11261;52.456;10.850;2023-04-05T07:02:34;8.90;96.30
22192;DHT22;11261;52.456;10.850;2023-04-05T07:05:03;9.70;95.30
22192;DHT22;11261;52.456;10.850;2023-04-05T07:07:32;9.90;94.80
22192;DHT22;11261;52.456;10.850;2023-04-05T07:10:00;10.70;95.10
22192;DHT22;11261;52.456;10.850;2023-04-05T07:12:29;9.50;93.80
22192;DHT22;11261;52.456;10.850;2023-04-05T07:14:59;9.90;94.90
22192;DHT22;11261;52.456;10.850;2023-04-05T07:17:28;11.20;92.80
22192;DHT22;11261;52.456;10.850;2023-04-05T07:19:56;11.40;92.30
22192;DHT22;11261;52.456;10.850;2023-04-05T07:22:24;11.60;91.80
22192;DHT22;11261;52.456;10.850;2023-04-05T07:24:53;11.90;91.70
22192;DHT22;11261;52.456;10.850;2023-04-05T07:27:21;11.60;91.20
22192;DHT22;11261;52.456;10.850;2023-04-05T07:29:50;11.60;93.80
22192;DHT22;11261;52.456;10.850;2023-04-05T07:32:20;11.60;91.70
22192;DHT22;11261;52.456;10.850;2023-04-05T07:34:48;11.50;91.90
22192;DHT22;11261;52.456;10.850;2023-04-05T07:37:16;11.50;91.80
22192;DHT22;11261;52.456;10.850;2023-04-05T07:39:44;11.00;92.40
22192;DHT22;11261;52.456;10.850;2023-04-05T07:42:13;12.30;90.20
22192;DHT22;11261;52.456;10.850;2023-04-05T07:44:41;12.80;87.20
22192;DHT22;11261;52.456;10.850;2023-04-05T07:47:09;12.40;88.20
22192;DHT22;11261;52.456;10.850;2023-04-05T07:49:39;12.50;89.00
22192;DHT22;11261;52.456;10.850;2023-04-05T07:52:07;11.80;88.20
22192;DHT22;11261;52.456;10.850;2023-04-05T07:54:36;10.30;91.00
22192;DHT22;11261;52.456;10.850;2023-04-05T07:57:05;11.20;92.40
22192;DHT22;11261;52.456;10.850;2023-04-05T07:59:34;12.00;90.10
22192;DHT22;11261;52.456;10.850;2023-04-05T08:02:02;11.80;89.50
22192;DHT22;11261;52.456;10.850;2023-04-05T08:04:42;12.20;90.10
22192;DHT22;11261;52.456;10.850;2023-04-05T08:07:10;13.10;85.70
22192;DHT22;11261;52.456;10.850;2023-04-05T08:09:38;12.80;91.80
22192;DHT22;11261;52.456;10.850;2023-04-05T08:12:07;13.10;91.20
22192;DHT22;11261;52.456;10.850;2023-04-05T08:14:37;13.90;86.20
22192;DHT22;11261;52.456;10.850;2023-04-05T08:17:05;14.50;82.00
22192;DHT22;11261;52.456;10.850;2023-04-05T08:19:33;14.00;85.70
22192;DHT22;11261;52.456;10.850;2023-04-05T08:22:02;13.70;90.40
22192;DHT22;11261;52.456;10.850;2023-04-05T08:24:31;14.60;82.40
22192;DHT22;11261;52.456;10.850;2023-04-05T08:26:59;14.30;79.10
22192;DHT22;11261;52.456;10.850;2023-04-05T08:29:27;14.20;79.70
22192;DHT22;11261;52.456;10.850;2023-04-05T08:31:56;14.10;85.50
22192;DHT22;11261;52.456;10.850;2023-04-05T08:34:24;14.50;83.70
22192;DHT22;11261;52.456;10.850;2023-04-05T08:36:56;15.40;80.60
22192;DHT22;11261;52.456;10.850;2023-04-05T08:39:26;14.90;84.90
22192;DHT22;11261;52.456;10.850;2023-04-05T08:41:59;14.10;81.20
22192;DHT22;11261;52.456;10.850;2023-04-05T08:44:30;13.90;86.50
22192;DHT22;11261;52.456;10.850;2023-04-05T08:46:59;14.00;91.10
22192;DHT22;11261;52.456;10.850;2023-04-05T08:49:28;15.00;82.00
22192;DHT22;11261;52.456;10.850;2023-04-05T08:51:58;14.60;91.40
22192;DHT22;11261;52.456;10.850;2023-04-05T08:54:28;13.90;76.50
22192;DHT22;11261;52.456;10.850;2023-04-05T08:56:57;12.30;76.80
22192;DHT22;11261;52.456;10.850;2023-04-05T08:59:26;13.00;78.60
22192;DHT22;11261;52.456;10.850;2023-04-05T09:01:55;13.30;75.80
22192;DHT22;11261;52.456;10.850;2023-04-05T09:04:30;13.00;75.70
22192;DHT22;11261;52.456;10.850;2023-04-05T09:07:00;12.00;79.40
22192;DHT22;11261;52.456;10.850;2023-04-05T09:09:35;12.30;84.50
22192;DHT22;11261;52.456;10.850;2023-04-05T09:12:05;11.90;78.40
22192;DHT22;11261;52.456;10.850;2023-04-05T09:14:35;12.40;80.20
22192;DHT22;11261;52.456;10.850;2023-04-05T09:17:05;10.10;80.20
22192;DHT22;11261;52.456;10.850;2023-04-05T09:19:33;11.20;89.60
22192;DHT22;11261;52.456;10.850;2023-04-05T09:22:04;9.50;82.00
22192;DHT22;11261;52.456;10.850;2023-04-05T09:24:35;11.10;93.50
22192;DHT22;11261;52.456;10.850;2023-04-05T09:27:08;10.80;86.20
22192;DHT22;11261;52.456;10.850;2023-04-05T09:29:38;12.80;86.40
22192;DHT22;11261;52.456;10.850;2023-04-05T09:32:08;11.50;76.80
22192;DHT22;11261;52.456;10.850;2023-04-05T09:34:38;12.10;75.50
22192;DHT22;11261;52.456;10.850;2023-04-05T09:37:12;11.50;76.80
22192;DHT22;11261;52.456;10.850;2023-04-05T09:39:43;12.20;90.90
22192;DHT22;11261;52.456;10.850;2023-04-05T09:42:13;12.70;76.80
22192;DHT22;11261;52.456;10.850;2023-04-05T09:44:49;12.20;85.80
22192;DHT22;11261;52.456;10.850;2023-04-05T09:47:19;11.70;76.80
22192;DHT22;11261;52.456;10.850;2023-04-05T09:49:48;10.80;78.40
22192;DHT22;11261;52.456;10.850;2023-04-05T09:52:20;12.60;76.70
22192;DHT22;11261;52.456;10.850;2023-04-05T09:54:51;13.20;77.40
22192;DHT22;11261;52.456;10.850;2023-04-05T09:57:19;13.80;87.50
22192;DHT22;11261;52.456;10.850;2023-04-05T09:59:48;14.40;82.40
22192;DHT22;11261;52.456;10.850;2023-04-05T10:02:16;14.00;78.50
22192;DHT22;11261;52.456;10.850;2023-04-05T10:04:45;13.90;83.80
22192;DHT22;11261;52.456;10.850;2023-04-05T10:07:14;13.80;84.00
22192;DHT22;11261;52.456;10.850;2023-04-05T10:09:44;14.10;77.80
22192;DHT22;11261;52.456;10.850;2023-04-05T10:12:20;13.70;83.90
22192;DHT22;11261;52.456;10.850;2023-04-05T10:14:50;13.80;83.80
22192;DHT22;11261;52.456;10.850;2023-04-05T10:17:23;14.00;82.50
22192;DHT22;11261;52.456;10.850;2023-04-05T10:20:00;14.20;84.20
22192;DHT22;11261;52.456;10.850;2023-04-05T10:22:35;14.80;78.00
22192;DHT22;11261;52.456;10.850;2023-04-05T10:25:14;15.00;78.20
22192;DHT22;11261;52.456;10.850;2023-04-05T10:27:53;15.10;82.40
22192;DHT22;11261;52.456;10.850;2023-04-05T10:30:23;15.40;81.70
22192;DHT22;11261;52.456;10.850;2023-04-05T10:33:06;15.90;82.90
22192;DHT22;11261;52.456;10.850;2023-04-05T10:35:47;15.50;80.40
22192;DHT22;11261;52.456;10.850;2023-04-05T10:38:22;14.30;70.50
22192;DHT22;11261;52.456;10.850;2023-04-05T10:40:53;14.60;88.60
22192;DHT22;11261;52.456;10.850;2023-04-05T10:43:25;14.20;72.40
22192;DHT22;11261;52.456;10.850;2023-04-05T10:45:54;14.50;76.90
22192;DHT22;11261;52.456;10.850;2023-04-05T10:48:35;14.80;82.30
22192;DHT22;11261;52.456;10.850;2023-04-05T10:51:06;15.50;79.40
22192;DHT22;11261;52.456;10.850;2023-04-05T10:53:36;16.00;80.20
22192;DHT22;11261;52.456;10.850;2023-04-05T10:56:05;16.90;82.80
22192;DHT22;11261;52.456;10.850;2023-04-05T10:58:36;16.40;72.60
22192;DHT22;11261;52.456;10.850;2023-04-05T11:01:07;16.40;79.00
22192;DHT22;11261;52.456;10.850;2023-04-05T11:03:49;15.40;71.30
22192;DHT22;11261;52.456;10.850;2023-04-05T11:06:29;15.70;76.50
22192;DHT22;11261;52.456;10.850;2023-04-05T11:09:00;14.30;68.50
22192;DHT22;11261;52.456;10.850;2023-04-05T11:11:37;14.90;84.20
22192;DHT22;11261;52.456;10.850;2023-04-05T11:14:23;15.00;77.20
22192;DHT22;11261;52.456;10.850;2023-04-05T11:16:53;15.70;80.70
22192;DHT22;11261;52.456;10.850;2023-04-05T11:19:47;16.00;80.00
22192;DHT22;11261;52.456;10.850;2023-04-05T11:22:24;13.40;67.30
22192;DHT22;11261;52.456;10.850;2023-04-05T11:24:54;13.80;79.00
22192;DHT22;11261;52.456;10.850;2023-04-05T11:27:25;15.00;81.60
22192;DHT22;11261;52.456;10.850;2023-04-05T11:29:56;15.30;72.50
22192;DHT22;11261;52.456;10.850;2023-04-05T11:32:37;15.80;68.30
22192;DHT22;11261;52.456;10.850;2023-04-05T11:35:07;15.70;75.60
22192;DHT22;11261;52.456;10.850;2023-04-05T11:37:55;15.00;71.90
22192;DHT22;11261;52.456;10.850;2023-04-05T11:40:28;16.10;71.70
22192;DHT22;11261;52.456;10.850;2023-04-05T11:43:04;15.90;77.10
22192;DHT22;11261;52.456;10.850;2023-04-05T11:45:36;15.90;76.70
22192;DHT22;11261;52.456;10.850;2023-04-05T11:48:05;16.30;76.00
22192;DHT22;11261;52.456;10.850;2023-04-05T11:50:35;16.20;78.90
22192;DHT22;11261;52.456;10.850;2023-04-05T11:53:08;15.70;69.80
22192;DHT22;11261;52.456;10.850;2023-04-05T11:55:37;15.40;65.50
22192;DHT22;11261;52.456;10.850;2023-04-05T11:58:12;15.30;78.90
22192;DHT22;11261;52.456;10.850;2023-04-05T12:00:44;15.50;69.00
22192;DHT22;11261;52.456;10.850;2023-04-05T12:03:13;15.50;72.00
22192;DHT22;11261;52.456;10.850;2023-04-05T12:05:48;15.40;72.20
22192;DHT22;11261;52.456;10.850;2023-04-05T12:08:17;14.70;68.70
22192;DHT22;11261;52.456;10.850;2023-04-05T12:10:54;14.30;63.90
22192;DHT22;11261;52.456;10.850;2023-04-05T12:13:27;14.70;69.50
22192;DHT22;11261;52.456;10.850;2023-04-05T12:15:58;14.60;74.80
22192;DHT22;11261;52.456;10.850;2023-04-05T12:18:29;14.60;71.10
22192;DHT22;11261;52.456;10.850;2023-04-05T12:20:58;14.30;75.10
22192;DHT22;11261;52.456;10.850;2023-04-05T12:23:27;14.50;74.50
22192;DHT22;11261;52.456;10.850;2023-04-05T12:25:56;14.50;74.20
22192;DHT22;11261;52.456;10.850;2023-04-05T12:28:25;14.10;69.90
22192;DHT22;11261;52.456;10.850;2023-04-05T12:30:54;14.50;74.60
22192;DHT22;11261;52.456;10.850;2023-04-05T12:33:29;13.60;64.70
22192;DHT22;11261;52.456;10.850;2023-04-05T12:36:00;12.10;76.40
22192;DHT22;11261;52.456;10.850;2023-04-05T12:38:31;12.60;72.80
22192;DHT22;11261;52.456;10.850;2023-04-05T12:41:00;13.50;69.60
22192;DHT22;11261;52.456;10.850;2023-04-05T12:43:37;14.20;72.00
22192;DHT22;11261;52.456;10.850;2023-04-05T12:46:08;14.30;70.30
22192;DHT22;11261;52.456;10.850;2023-04-05T12:48:41;14.80;70.50
22192;DHT22;11261;52.456;10.850;2023-04-05T12:51:14;14.30;67.50
22192;DHT22;11261;52.456;10.850;2023-04-05T12:53:44;14.80;70.70
22192;DHT22;11261;52.456;10.850;2023-04-05T12:56:14;14.50;75.80
22192;DHT22;11261;52.456;10.850;2023-04-05T12:58:47;15.30;74.90
22192;DHT22;11261;52.456;10.850;2023-04-05T13:01:16;14.20;75.90
22192;DHT22;11261;52.456;10.850;2023-04-05T13:03:46;15.20;78.10
22192;DHT22;11261;52.456;10.850;2023-04-05T13:06:15;15.80;75.50
22192;DHT22;11261;52.456;10.850;2023-04-05T13:08:44;15.20;67.00
22192;DHT22;11261;52.456;10.850;2023-04-05T13:11:12;14.90;64.60
22192;DHT22;11261;52.456;10.850;2023-04-05T13:13:40;15.70;79.00
22192;DHT22;11261;52.456;10.850;2023-04-05T13:16:08;16.10;74.50
22192;DHT22;11261;52.456;10.850;2023-04-05T13:18:37;16.00;63.40
22192;DHT22;11261;52.456;10.850;2023-04-05T13:21:07;15.30;73.10
22192;DHT22;11261;52.456;10.850;2023-04-05T13:23:36;14.10;65.80
22192;DHT22;11261;52.456;10.850;2023-04-05T13:26:06;12.40;67.50
22192;DHT22;11261;52.456;10.850;2023-04-05T13:28:34;12.40;67.80
22192;DHT22;11261;52.456;10.850;2023-04-05T13:31:02;11.20;68.60
22192;DHT22;11261;52.456;10.850;2023-04-05T13:33:32;10.90;70.10
22192;DHT22;11261;52.456;10.850;2023-04-05T13:36:00;10.40;71.10
22192;DHT22;11261;52.456;10.850;2023-04-05T13:38:30;10.80;69.50
22192;DHT22;11261;52.456;10.850;2023-04-05T13:40:59;12.50;79.00
22192;DHT22;11261;52.456;10.850;2023-04-05T13:43:27;13.10;77.20
22192;DHT22;11261;52.456;10.850;2023-04-05T13:45:57;12.90;66.70
22192;DHT22;11261;52.456;10.850;2023-04-05T13:48:25;12.00;77.20
22192;DHT22;11261;52.456;10.850;2023-04-05T13:50:53;14.00;70.30
22192;DHT22;11261;52.456;10.850;2023-04-05T13:53:22;13.60;64.30
22192;DHT22;11261;52.456;10.850;2023-04-05T13:55:55;13.50;69.90
22192;DHT22;11261;52.456;10.850;2023-04-05T13:58:23;14.30;75.10
22192;DHT22;11261;52.456;10.850;2023-04-05T14:00:51;15.00;77.50
22192;DHT22;11261;52.456;10.850;2023-04-05T14:03:20;15.10;76.10
22192;DHT22;11261;52.456;10.850;2023-04-05T14:05:48;15.10;70.10
22192;DHT22;11261;52.456;10.850;2023-04-05T14:08:20;15.20;65.60
22192;DHT22;11261;52.456;10.850;2023-04-05T14:10:48;14.40;70.60
22192;DHT22;11261;52.456;10.850;2023-04-05T14:13:18;14.10;62.60
22192;DHT22;11261;52.456;10.850;2023-04-05T14:15:46;12.30;64.50
22192;DHT22;11261;52.456;10.850;2023-04-05T14:18:15;11.10;66.00
22192;DHT22;11261;52.456;10.850;2023-04-05T14:20:43;12.20;77.20
22192;DHT22;11261;52.456;10.850;2023-04-05T14:23:12;12.40;65.10
22192;DHT22;11261;52.456;10.850;2023-04-05T14:25:40;10.60;68.00
22192;DHT22;11261;52.456;10.850;2023-04-05T14:28:08;10.50;69.10
22192;DHT22;11261;52.456;10.850;2023-04-05T14:30:38;10.90;69.10
22192;DHT22;11261;52.456;10.850;2023-04-05T14:33:07;10.70;70.90
22192;DHT22;11261;52.456;10.850;2023-04-05T14:35:35;10.40;68.30
22192;DHT22;11261;52.456;10.850;2023-04-05T14:38:03;10.70;75.80
22192;DHT22;11261;52.456;10.850;2023-04-05T14:40:32;11.80;70.30
22192;DHT22;11261;52.456;10.850;2023-04-05T14:43:00;11.80;68.10
22192;DHT22;11261;52.456;10.850;2023-04-05T14:45:28;10.50;68.80
22192;DHT22;11261;52.456;10.850;2023-04-05T14:47:59;10.20;70.10
22192;DHT22;11261;52.456;10.850;2023-04-05T14:50:27;11.60;77.30
22192;DHT22;11261;52.456;10.850;2023-04-05T14:52:58;11.30;67.20
22192;DHT22;11261;52.456;10.850;2023-04-05T14:55:26;10.90;69.70
22192;DHT22;11261;52.456;10.850;2023-04-05T14:57:55;10.90;69.30
22192;DHT22;11261;52.456;10.850;2023-04-05T15:00:23;11.10;73.50
22192;DHT22;11261;52.456;10.850;2023-04-05T15:02:52;10.80;76.70
22192;DHT22;11261;52.456;10.850;2023-04-05T15:05:21;12.40;76.40
22192;DHT22;11261;52.456;10.850;2023-04-05T15:07:49;13.00;74.00
22192;DHT22;11261;52.456;10.850;2023-04-05T15:10:18;12.60;66.80
22192;DHT22;11261;52.456;10.850;2023-04-05T15:12:46;11.40;72.30
22192;DHT22;11261;52.456;10.850;2023-04-05T15:15:16;12.00;67.90
22192;DHT22;11261;52.456;10.850;2023-04-05T15:17:44;12.40;74.30
22192;DHT22;11261;52.456;10.850;2023-04-05T15:20:12;12.80;74.50
22192;DHT22;11261;52.456;10.850;2023-04-05T15:22:42;13.00;72.60
22192;DHT22;11261;52.456;10.850;2023-04-05T15:25:11;12.80;69.10
22192;DHT22;11261;52.456;10.850;2023-04-05T15:27:39;10.90;67.70
22192;DHT22;11261;52.456;10.850;2023-04-05T15:30:08;9.60;68.60
22192;DHT22;11261;52.456;10.850;2023-04-05T15:32:37;9.50;70.30
22192;DHT22;11261;52.456;10.850;2023-04-05T15:35:05;10.30;71.20
22192;DHT22;11261;52.456;10.850;2023-04-05T15:37:34;10.50;73.00
22192;DHT22;11261;52.456;10.850;2023-04-05T15:40:04;11.10;74.80
22192;DHT22;11261;52.456;10.850;2023-04-05T15:42:33;11.50;70.80
22192;DHT22;11261;52.456;10.850;2023-04-05T15:45:02;11.90;73.60